Ashland, Wisconsin
Current Conditions -  °F | °C
As of 8:53 PM on Saturday 25 Oct 2014 (Local Time) from KASX Reporting Station
Clear Clear  
Wind Chill:   Ceiling: Unl
Heat Index:   Visibility: 10mi
Dew Point: -2°   Wind: 9mph
Humidity: 46%   Direction: 260°W
Pressure: 29.96"   Gusts: NA
Location:  46.59°N, 90.89°W
Report Text: KASX 260153Z AUTO 26008KT 10SM CLR 09/M02 A2996 RMK AO2 SLP152 T00891022
Loading
Personal Weather Stations






























Interactive Weather Map
Tropical Storm Tracking
New forecast layout! Learn more

10-Day Weather Forecast

Advertisements
Track Severe Weather on mobile